sensor_id;sensor_type;location;lat;lon;timestamp;pressure;altitude;pressure_sealevel;temperature;humidity
31337;BME280;22846;42.654;23.314;2023-08-07T00:01:19;93955.03;;;27.57;37.75
31337;BME280;22846;42.654;23.314;2023-08-07T00:03:45;93968.00;;;27.57;38.00
31337;BME280;22846;42.654;23.314;2023-08-07T00:06:10;93959.75;;;27.57;38.40
31337;BME280;22846;42.654;23.314;2023-08-07T00:08:35;93963.75;;;27.56;38.03
31337;BME280;22846;42.654;23.314;2023-08-07T00:11:07;93955.97;;;27.54;38.20
31337;BME280;22846;42.654;23.314;2023-08-07T00:13:33;93969.69;;;27.54;38.20
31337;BME280;22846;42.654;23.314;2023-08-07T00:15:58;93968.19;;;27.53;38.67
31337;BME280;22846;42.654;23.314;2023-08-07T00:18:24;93972.16;;;27.52;38.38
31337;BME280;22846;42.654;23.314;2023-08-07T00:20:49;93955.41;;;27.50;38.42
31337;BME280;22846;42.654;23.314;2023-08-07T00:23:14;93964.88;;;27.49;38.66
31337;BME280;22846;42.654;23.314;2023-08-07T00:25:40;93959.09;;;27.47;38.38
31337;BME280;22846;42.654;23.314;2023-08-07T00:28:05;93957.59;;;27.46;38.53
31337;BME280;22846;42.654;23.314;2023-08-07T00:30:31;93958.81;;;27.45;38.50
31337;BME280;22846;42.654;23.314;2023-08-07T00:32:56;93963.56;;;27.45;38.45
31337;BME280;22846;42.654;23.314;2023-08-07T00:35:21;93958.50;;;27.43;38.37
31337;BME280;22846;42.654;23.314;2023-08-07T00:37:47;93966.75;;;27.43;38.54
31337;BME280;22846;42.654;23.314;2023-08-07T00:40:12;93965.25;;;27.42;38.57
31337;BME280;22846;42.654;23.314;2023-08-07T00:42:37;93968.47;;;27.41;38.16
31337;BME280;22846;42.654;23.314;2023-08-07T00:45:04;93969.97;;;27.42;38.61
31337;BME280;22846;42.654;23.314;2023-08-07T00:47:30;93977.47;;;27.41;38.55
31337;BME280;22846;42.654;23.314;2023-08-07T00:49:57;93981.88;;;27.39;38.62
31337;BME280;22846;42.654;23.314;2023-08-07T00:52:23;93981.13;;;27.38;38.76
31337;BME280;22846;42.654;23.314;2023-08-07T00:54:48;93988.16;;;27.39;39.01
31337;BME280;22846;42.654;23.314;2023-08-07T00:57:14;93996.09;;;27.37;38.54
31337;BME280;22846;42.654;23.314;2023-08-07T00:59:40;93993.81;;;27.36;39.00
31337;BME280;22846;42.654;23.314;2023-08-07T01:02:06;93987.66;;;27.27;38.69
31337;BME280;22846;42.654;23.314;2023-08-07T01:04:32;93998.72;;;27.32;38.74
31337;BME280;22846;42.654;23.314;2023-08-07T01:06:58;93995.72;;;27.30;38.60
31337;BME280;22846;42.654;23.314;2023-08-07T01:09:23;93996.16;;;27.29;38.97
31337;BME280;22846;42.654;23.314;2023-08-07T01:14:39;93997.28;;;27.22;38.78
31337;BME280;22846;42.654;23.314;2023-08-07T01:17:16;94009.31;;;27.25;39.30
31337;BME280;22846;42.654;23.314;2023-08-07T01:19:42;93999.94;;;27.17;38.79
31337;BME280;22846;42.654;23.314;2023-08-07T01:22:12;94003.16;;;27.15;39.10
31337;BME280;22846;42.654;23.314;2023-08-07T01:24:39;94012.25;;;27.21;38.82
31337;BME280;22846;42.654;23.314;2023-08-07T01:30:08;94012.41;;;27.18;39.57
31337;BME280;22846;42.654;23.314;2023-08-07T01:32:43;94019.91;;;27.17;39.10
31337;BME280;22846;42.654;23.314;2023-08-07T01:35:14;94012.16;;;27.16;39.10
31337;BME280;22846;42.654;23.314;2023-08-07T01:37:41;94007.88;;;27.15;39.25
31337;BME280;22846;42.654;23.314;2023-08-07T01:40:08;94006.38;;;27.14;39.33
31337;BME280;22846;42.654;23.314;2023-08-07T01:42:35;94006.06;;;27.12;39.32
31337;BME280;22846;42.654;23.314;2023-08-07T01:45:02;94008.50;;;27.10;39.38
31337;BME280;22846;42.654;23.314;2023-08-07T01:47:27;94005.50;;;27.08;39.45
31337;BME280;22846;42.654;23.314;2023-08-07T01:49:53;94007.97;;;27.06;39.40
31337;BME280;22846;42.654;23.314;2023-08-07T01:52:19;94007.66;;;27.04;39.57
31337;BME280;22846;42.654;23.314;2023-08-07T01:54:45;94010.41;;;27.04;39.66
31337;BME280;22846;42.654;23.314;2023-08-07T01:57:10;94016.38;;;27.02;39.61
31337;BME280;22846;42.654;23.314;2023-08-07T01:59:35;94016.81;;;27.01;39.25
31337;BME280;22846;42.654;23.314;2023-08-07T02:02:01;94020.00;;;26.99;39.36
31337;BME280;22846;42.654;23.314;2023-08-07T02:04:26;94016.69;;;26.95;39.10
31337;BME280;22846;42.654;23.314;2023-08-07T02:06:51;94021.13;;;26.93;39.36
31337;BME280;22846;42.654;23.314;2023-08-07T02:09:17;94026.78;;;26.89;39.53
31337;BME280;22846;42.654;23.314;2023-08-07T02:11:42;94025.00;;;26.86;39.25
31337;BME280;22846;42.654;23.314;2023-08-07T02:14:08;94027.88;;;26.83;39.07
31337;BME280;22846;42.654;23.314;2023-08-07T02:16:33;94026.09;;;26.80;39.54
31337;BME280;22846;42.654;23.314;2023-08-07T02:18:58;94036.75;;;26.78;39.56
31337;BME280;22846;42.654;23.314;2023-08-07T02:21:24;94035.53;;;26.79;39.65
31337;BME280;22846;42.654;23.314;2023-08-07T02:23:49;94041.19;;;26.75;39.52
31337;BME280;22846;42.654;23.314;2023-08-07T02:26:15;94045.91;;;26.75;39.48
31337;BME280;22846;42.654;23.314;2023-08-07T02:28:40;94040.41;;;26.75;39.96
31337;BME280;22846;42.654;23.314;2023-08-07T02:31:05;94043.16;;;26.75;40.06
31337;BME280;22846;42.654;23.314;2023-08-07T02:33:31;94051.38;;;26.75;39.68
31337;BME280;22846;42.654;23.314;2023-08-07T02:35:57;94047.91;;;26.74;39.66
31337;BME280;22846;42.654;23.314;2023-08-07T02:38:23;94040.41;;;26.75;39.93
31337;BME280;22846;42.654;23.314;2023-08-07T02:40:48;94031.94;;;26.73;39.44
31337;BME280;22846;42.654;23.314;2023-08-07T02:43:13;94032.97;;;26.75;39.47
31337;BME280;22846;42.654;23.314;2023-08-07T02:45:39;94041.94;;;26.76;39.80
31337;BME280;22846;42.654;23.314;2023-08-07T02:48:04;94045.47;;;26.76;39.50
31337;BME280;22846;42.654;23.314;2023-08-07T02:50:30;94042.72;;;26.76;39.54
31337;BME280;22846;42.654;23.314;2023-08-07T02:52:58;94052.16;;;26.75;39.38
31337;BME280;22846;42.654;23.314;2023-08-07T02:55:23;94054.91;;;26.75;39.33
31337;BME280;22846;42.654;23.314;2023-08-07T02:57:49;94048.66;;;26.75;39.66
31337;BME280;22846;42.654;23.314;2023-08-07T03:00:14;94056.13;;;26.74;39.61
31337;BME280;22846;42.654;23.314;2023-08-07T03:02:39;94057.34;;;26.73;39.42
31337;BME280;22846;42.654;23.314;2023-08-07T03:05:05;94062.81;;;26.73;39.81
31337;BME280;22846;42.654;23.314;2023-08-07T03:07:31;94066.03;;;26.72;39.72
31337;BME280;22846;42.654;23.314;2023-08-07T03:09:56;94066.78;;;26.72;39.58
31337;BME280;22846;42.654;23.314;2023-08-07T03:12:21;94069.22;;;26.70;39.45
31337;BME280;22846;42.654;23.314;2023-08-07T03:14:47;94074.13;;;26.66;39.80
31337;BME280;22846;42.654;23.314;2023-08-07T03:17:12;94069.28;;;26.61;39.68
31337;BME280;22846;42.654;23.314;2023-08-07T03:19:41;94072.97;;;26.58;39.83
31337;BME280;22846;42.654;23.314;2023-08-07T03:22:07;94076.78;;;26.52;39.75
31337;BME280;22846;42.654;23.314;2023-08-07T03:24:32;94083.50;;;26.51;40.20
31337;BME280;22846;42.654;23.314;2023-08-07T03:26:58;94081.41;;;26.46;39.95
31337;BME280;22846;42.654;23.314;2023-08-07T03:29:23;94085.06;;;26.43;40.34
31337;BME280;22846;42.654;23.314;2023-08-07T03:31:49;94081.75;;;26.39;40.00
31337;BME280;22846;42.654;23.314;2023-08-07T03:34:14;94085.38;;;26.36;40.18
31337;BME280;22846;42.654;23.314;2023-08-07T03:36:39;94105.44;;;26.33;40.02
31337;BME280;22846;42.654;23.314;2023-08-07T03:39:05;94107.16;;;26.31;40.49
31337;BME280;22846;42.654;23.314;2023-08-07T03:41:30;94113.09;;;26.29;40.46
31337;BME280;22846;42.654;23.314;2023-08-07T03:43:55;94119.78;;;26.28;40.99
31337;BME280;22846;42.654;23.314;2023-08-07T03:46:21;94111.56;;;26.28;40.65
31337;BME280;22846;42.654;23.314;2023-08-07T03:48:46;94112.78;;;26.27;40.60
31337;BME280;22846;42.654;23.314;2023-08-07T03:51:12;94122.53;;;26.28;40.68
31337;BME280;22846;42.654;23.314;2023-08-07T03:53:37;94117.22;;;26.25;40.57
31337;BME280;22846;42.654;23.314;2023-08-07T03:56:03;94117.06;;;26.28;40.65
31337;BME280;22846;42.654;23.314;2023-08-07T03:58:29;94114.63;;;26.30;40.66
31337;BME280;22846;42.654;23.314;2023-08-07T04:00:55;94118.84;;;26.31;40.08
31337;BME280;22846;42.654;23.314;2023-08-07T04:03:20;94121.91;;;26.33;40.40
31337;BME280;22846;42.654;23.314;2023-08-07T04:05:46;94133.16;;;26.35;39.86
31337;BME280;22846;42.654;23.314;2023-08-07T04:08:11;94129.19;;;26.36;40.14
31337;BME280;22846;42.654;23.314;2023-08-07T04:10:37;94136.94;;;26.38;40.03
31337;BME280;22846;42.654;23.314;2023-08-07T04:13:02;94135.72;;;26.39;40.00
31337;BME280;22846;42.654;23.314;2023-08-07T04:15:28;94137.28;;;26.40;39.66
31337;BME280;22846;42.654;23.314;2023-08-07T04:17:53;94134.84;;;26.42;39.92
31337;BME280;22846;42.654;23.314;2023-08-07T04:20:19;94140.31;;;26.42;40.08
31337;BME280;22846;42.654;23.314;2023-08-07T04:22:45;94148.06;;;26.43;39.45
31337;BME280;22846;42.654;23.314;2023-08-07T04:25:11;94152.34;;;26.44;39.60
31337;BME280;22846;42.654;23.314;2023-08-07T04:27:37;94148.38;;;26.45;39.67
31337;BME280;22846;42.654;23.314;2023-08-07T04:30:04;94144.44;;;26.46;39.85
31337;BME280;22846;42.654;23.314;2023-08-07T04:32:29;94149.91;;;26.46;39.77
31337;BME280;22846;42.654;23.314;2023-08-07T04:34:55;94152.66;;;26.46;39.51
31337;BME280;22846;42.654;23.314;2023-08-07T04:37:20;94152.34;;;26.44;39.15
31337;BME280;22846;42.654;23.314;2023-08-07T04:39:45;94155.69;;;26.48;39.53
31337;BME280;22846;42.654;23.314;2023-08-07T04:42:11;94158.84;;;26.55;39.84
31337;BME280;22846;42.654;23.314;2023-08-07T04:44:36;94148.91;;;26.67;40.36
31337;BME280;22846;42.654;23.314;2023-08-07T04:47:02;94160.72;;;26.82;41.68
31337;BME280;22846;42.654;23.314;2023-08-07T04:49:27;94149.81;;;26.96;42.01
31337;BME280;22846;42.654;23.314;2023-08-07T04:51:52;94154.38;;;27.08;41.50
31337;BME280;22846;42.654;23.314;2023-08-07T04:54:18;94153.84;;;27.19;41.97
31337;BME280;22846;42.654;23.314;2023-08-07T04:56:43;94148.59;;;27.30;41.83
31337;BME280;22846;42.654;23.314;2023-08-07T04:59:10;94143.06;;;27.38;41.69
31337;BME280;22846;42.654;23.314;2023-08-07T05:01:35;94154.44;;;27.46;42.29
31337;BME280;22846;42.654;23.314;2023-08-07T05:04:01;94150.41;;;27.56;42.17
31337;BME280;22846;42.654;23.314;2023-08-07T05:06:27;94155.09;;;27.64;42.12
31337;BME280;22846;42.654;23.314;2023-08-07T05:08:52;94143.44;;;27.69;41.66
31337;BME280;22846;42.654;23.314;2023-08-07T05:11:18;94150.47;;;27.70;40.31
31337;BME280;22846;42.654;23.314;2023-08-07T05:13:45;94137.50;;;27.71;39.90
31337;BME280;22846;42.654;23.314;2023-08-07T05:16:10;94145.44;;;27.69;39.82
31337;BME280;22846;42.654;23.314;2023-08-07T05:18:36;94140.69;;;27.69;39.52
31337;BME280;22846;42.654;23.314;2023-08-07T05:21:01;94141.19;;;27.68;39.55
31337;BME280;22846;42.654;23.314;2023-08-07T05:23:27;94140.44;;;27.67;39.59
31337;BME280;22846;42.654;23.314;2023-08-07T05:25:52;94138.91;;;27.66;39.41
31337;BME280;22846;42.654;23.314;2023-08-07T05:28:17;94133.13;;;27.64;38.94
31337;BME280;22846;42.654;23.314;2023-08-07T05:30:43;94148.38;;;27.65;39.01
31337;BME280;22846;42.654;23.314;2023-08-07T05:33:08;94144.59;;;27.63;39.36
31337;BME280;22846;42.654;23.314;2023-08-07T05:35:33;94152.19;;;27.59;38.69
31337;BME280;22846;42.654;23.314;2023-08-07T05:37:59;94142.63;;;27.54;38.25
31337;BME280;22846;42.654;23.314;2023-08-07T05:40:24;94146.34;;;27.51;38.49
31337;BME280;22846;42.654;23.314;2023-08-07T05:42:50;94143.47;;;27.46;38.51
31337;BME280;22846;42.654;23.314;2023-08-07T05:45:15;94148.38;;;27.42;38.86
31337;BME280;22846;42.654;23.314;2023-08-07T05:47:41;94155.19;;;27.46;39.32
31337;BME280;22846;42.654;23.314;2023-08-07T05:50:06;94148.13;;;27.54;40.02
31337;BME280;22846;42.654;23.314;2023-08-07T05:52:32;94144.59;;;27.63;40.46
31337;BME280;22846;42.654;23.314;2023-08-07T05:54:57;94147.25;;;27.72;40.47
31337;BME280;22846;42.654;23.314;2023-08-07T05:57:22;94158.63;;;27.79;40.47
31337;BME280;22846;42.654;23.314;2023-08-07T05:59:48;94147.28;;;27.86;40.31
31337;BME280;22846;42.654;23.314;2023-08-07T06:02:13;94150.41;;;27.94;40.40
31337;BME280;22846;42.654;23.314;2023-08-07T06:04:39;94149.31;;;28.00;40.39
31337;BME280;22846;42.654;23.314;2023-08-07T06:07:06;94147.88;;;28.05;40.10
31337;BME280;22846;42.654;23.314;2023-08-07T06:09:32;94152.25;;;28.11;39.99
31337;BME280;22846;42.654;23.314;2023-08-07T06:11:57;94143.81;;;28.15;40.18
31337;BME280;22846;42.654;23.314;2023-08-07T06:14:23;94137.66;;;28.19;40.06
31337;BME280;22846;42.654;23.314;2023-08-07T06:16:50;94140.25;;;28.23;40.12
31337;BME280;22846;42.654;23.314;2023-08-07T06:19:16;94136.06;;;28.27;39.88
31337;BME280;22846;42.654;23.314;2023-08-07T06:21:41;94138.63;;;28.31;40.13
31337;BME280;22846;42.654;23.314;2023-08-07T06:24:06;94142.69;;;28.35;40.12
31337;BME280;22846;42.654;23.314;2023-08-07T06:26:32;94133.53;;;28.38;39.92
31337;BME280;22846;42.654;23.314;2023-08-07T06:28:57;94129.06;;;28.41;40.07
31337;BME280;22846;42.654;23.314;2023-08-07T06:31:23;94126.13;;;28.44;39.97
31337;BME280;22846;42.654;23.314;2023-08-07T06:33:49;94115.31;;;28.41;40.10
31337;BME280;22846;42.654;23.314;2023-08-07T06:36:14;94125.47;;;28.49;40.18
31337;BME280;22846;42.654;23.314;2023-08-07T06:38:40;94126.50;;;28.52;40.13
31337;BME280;22846;42.654;23.314;2023-08-07T06:41:05;94127.53;;;28.54;40.28
31337;BME280;22846;42.654;23.314;2023-08-07T06:43:30;94128.56;;;28.57;40.32
31337;BME280;22846;42.654;23.314;2023-08-07T06:45:56;94124.50;;;28.52;40.21
31337;BME280;22846;42.654;23.314;2023-08-07T06:48:22;94143.63;;;28.61;40.27
31337;BME280;22846;42.654;23.314;2023-08-07T06:50:48;94137.88;;;28.59;40.00
31337;BME280;22846;42.654;23.314;2023-08-07T06:53:14;94144.97;;;28.66;40.31
31337;BME280;22846;42.654;23.314;2023-08-07T06:55:44;94146.19;;;28.65;40.13
31337;BME280;22846;42.654;23.314;2023-08-07T06:58:10;94141.25;;;28.69;40.30
31337;BME280;22846;42.654;23.314;2023-08-07T07:00:36;94138.81;;;28.71;40.25
31337;BME280;22846;42.654;23.314;2023-08-07T07:03:02;94143.06;;;28.72;40.23
31337;BME280;22846;42.654;23.314;2023-08-07T07:05:28;94135.06;;;28.74;40.43
31337;BME280;22846;42.654;23.314;2023-08-07T07:07:53;94133.50;;;28.67;40.37
31337;BME280;22846;42.654;23.314;2023-08-07T07:10:22;94134.13;;;28.77;40.33
31337;BME280;22846;42.654;23.314;2023-08-07T07:12:47;94136.41;;;28.78;40.54
31337;BME280;22846;42.654;23.314;2023-08-07T07:15:13;94125.72;;;28.80;40.39
31337;BME280;22846;42.654;23.314;2023-08-07T07:17:39;94126.50;;;28.81;40.36
31337;BME280;22846;42.654;23.314;2023-08-07T07:20:05;94126.75;;;28.83;40.27
31337;BME280;22846;42.654;23.314;2023-08-07T07:22:30;94124.28;;;28.85;40.44
31337;BME280;22846;42.654;23.314;2023-08-07T07:24:55;94134.06;;;28.86;40.40
31337;BME280;22846;42.654;23.314;2023-08-07T07:27:21;94125.31;;;28.87;40.49
31337;BME280;22846;42.654;23.314;2023-08-07T07:29:48;94130.34;;;28.89;40.70
31337;BME280;22846;42.654;23.314;2023-08-07T07:32:13;94132.34;;;28.88;40.53
31337;BME280;22846;42.654;23.314;2023-08-07T07:34:38;94123.88;;;28.92;40.63
31337;BME280;22846;42.654;23.314;2023-08-07T07:37:04;94127.41;;;28.92;40.49
31337;BME280;22846;42.654;23.314;2023-08-07T07:39:29;94132.91;;;28.92;40.41
31337;BME280;22846;42.654;23.314;2023-08-07T07:41:55;94131.19;;;28.95;40.60
31337;BME280;22846;42.654;23.314;2023-08-07T07:44:20;94134.69;;;28.95;40.63
31337;BME280;22846;42.654;23.314;2023-08-07T07:46:46;94121.69;;;28.96;40.63
31337;BME280;22846;42.654;23.314;2023-08-07T07:49:11;94123.22;;;28.97;40.56
31337;BME280;22846;42.654;23.314;2023-08-07T07:51:37;94121.22;;;28.97;40.56
31337;BME280;22846;42.654;23.314;2023-08-07T07:54:02;94110.91;;;28.92;40.75
31337;BME280;22846;42.654;23.314;2023-08-07T07:56:28;94125.75;;;29.00;40.80
31337;BME280;22846;42.654;23.314;2023-08-07T07:58:53;94125.00;;;29.00;40.78
31337;BME280;22846;42.654;23.314;2023-08-07T08:01:19;94129.25;;;29.01;40.91
31337;BME280;22846;42.654;23.314;2023-08-07T08:03:44;94114.28;;;29.02;40.67
31337;BME280;22846;42.654;23.314;2023-08-07T08:06:12;94127.53;;;29.03;40.60
31337;BME280;22846;42.654;23.314;2023-08-07T08:08:38;94118.06;;;29.04;40.59
31337;BME280;22846;42.654;23.314;2023-08-07T08:11:04;94125.84;;;29.05;40.80
31337;BME280;22846;42.654;23.314;2023-08-07T08:13:29;94123.09;;;29.05;40.95
31337;BME280;22846;42.654;23.314;2023-08-07T08:15:54;94127.38;;;29.06;40.79
31337;BME280;22846;42.654;23.314;2023-08-07T08:18:20;94117.09;;;29.07;40.74
31337;BME280;22846;42.654;23.314;2023-08-07T08:20:45;94118.63;;;29.08;40.79
31337;BME280;22846;42.654;23.314;2023-08-07T08:23:11;94116.63;;;29.08;40.70
31337;BME280;22846;42.654;23.314;2023-08-07T08:25:36;94109.88;;;29.09;40.73
31337;BME280;22846;42.654;23.314;2023-08-07T08:28:01;94113.41;;;29.10;40.96
31337;BME280;22846;42.654;23.314;2023-08-07T08:30:28;94116.91;;;29.10;40.91
31337;BME280;22846;42.654;23.314;2023-08-07T08:32:55;94119.16;;;29.12;40.90
31337;BME280;22846;42.654;23.314;2023-08-07T08:35:20;94114.44;;;29.12;40.76
31337;BME280;22846;42.654;23.314;2023-08-07T08:37:46;94106.66;;;29.11;40.71
31337;BME280;22846;42.654;23.314;2023-08-07T08:40:11;94107.69;;;29.13;40.70
31337;BME280;22846;42.654;23.314;2023-08-07T08:42:44;94103.72;;;29.14;40.84
31337;BME280;22846;42.654;23.314;2023-08-07T08:45:12;94101.69;;;29.15;40.67
31337;BME280;22846;42.654;23.314;2023-08-07T08:47:39;94102.47;;;29.15;41.06
31337;BME280;22846;42.654;23.314;2023-08-07T08:50:08;94105.97;;;29.16;41.11
31337;BME280;22846;42.654;23.314;2023-08-07T08:52:35;94105.69;;;29.14;41.01
31337;BME280;22846;42.654;23.314;2023-08-07T08:55:02;94101.97;;;29.17;40.74
31337;BME280;22846;42.654;23.314;2023-08-07T08:57:28;94104.25;;;29.18;40.90
31337;BME280;22846;42.654;23.314;2023-08-07T08:59:56;94101.50;;;29.18;41.19
31337;BME280;22846;42.654;23.314;2023-08-07T09:02:22;94093.53;;;29.20;41.00
31337;BME280;22846;42.654;23.314;2023-08-07T09:04:47;94089.75;;;29.18;40.89
31337;BME280;22846;42.654;23.314;2023-08-07T09:07:14;94080.19;;;29.13;40.97
31337;BME280;22846;42.654;23.314;2023-08-07T09:09:41;94093.53;;;29.20;41.12
31337;BME280;22846;42.654;23.314;2023-08-07T09:12:15;94092.28;;;29.21;41.14
31337;BME280;22846;42.654;23.314;2023-08-07T09:14:43;94091.06;;;29.22;41.17
31337;BME280;22846;42.654;23.314;2023-08-07T09:17:09;94091.06;;;29.22;41.21
31337;BME280;22846;42.654;23.314;2023-08-07T09:19:37;94097.31;;;29.23;40.84
31337;BME280;22846;42.654;23.314;2023-08-07T09:22:03;94085.81;;;29.24;40.93
31337;BME280;22846;42.654;23.314;2023-08-07T09:24:29;94090.06;;;29.25;41.13
31337;BME280;22846;42.654;23.314;2023-08-07T09:26:55;94076.31;;;29.25;41.22
31337;BME280;22846;42.654;23.314;2023-08-07T09:29:21;94072.81;;;29.25;41.39
31337;BME280;22846;42.654;23.314;2023-08-07T09:31:47;94074.31;;;29.26;41.17
31337;BME280;22846;42.654;23.314;2023-08-07T09:34:13;94069.56;;;29.26;41.20
31337;BME280;22846;42.654;23.314;2023-08-07T09:36:41;94057.75;;;29.20;41.06
31337;BME280;22846;42.654;23.314;2023-08-07T09:39:07;94080.84;;;29.28;41.23
31337;BME280;22846;42.654;23.314;2023-08-07T09:41:32;94078.09;;;29.28;41.46
31337;BME280;22846;42.654;23.314;2023-08-07T09:44:06;94075.34;;;29.28;41.44
31337;BME280;22846;42.654;23.314;2023-08-07T09:46:40;94064.06;;;29.26;41.56
31337;BME280;22846;42.654;23.314;2023-08-07T09:49:06;94067.38;;;29.30;41.38
31337;BME280;22846;42.654;23.314;2023-08-07T09:51:41;94065.38;;;29.31;41.42
31337;BME280;22846;42.654;23.314;2023-08-07T09:54:07;94066.13;;;29.31;41.52
31337;BME280;22846;42.654;23.314;2023-08-07T09:56:32;94060.16;;;29.33;41.47
31337;BME280;22846;42.654;23.314;2023-08-07T09:58:58;94062.16;;;29.32;41.42
31337;BME280;22846;42.654;23.314;2023-08-07T10:01:25;94069.16;;;29.33;41.48
31337;BME280;22846;42.654;23.314;2023-08-07T10:03:51;94068.41;;;29.33;41.63
31337;BME280;22846;42.654;23.314;2023-08-07T10:06:17;94064.41;;;29.34;41.52
31337;BME280;22846;42.654;23.314;2023-08-07T10:08:45;94069.44;;;29.35;41.38
31337;BME280;22846;42.654;23.314;2023-08-07T10:11:11;94074.94;;;29.35;41.55
31337;BME280;22846;42.654;23.314;2023-08-07T10:13:37;94060.88;;;29.33;41.56
31337;BME280;22846;42.654;23.314;2023-08-07T10:16:03;94062.72;;;29.36;41.90
31337;BME280;22846;42.654;23.314;2023-08-07T10:18:29;94057.22;;;29.36;41.45
31337;BME280;22846;42.654;23.314;2023-08-07T10:20:55;94067.44;;;29.36;41.69
31337;BME280;22846;42.654;23.314;2023-08-07T10:23:23;94069.75;;;29.37;41.76
31337;BME280;22846;42.654;23.314;2023-08-07T10:25:49;94071.25;;;29.38;41.98
31337;BME280;22846;42.654;23.314;2023-08-07T10:28:17;94071.25;;;29.38;42.08
31337;BME280;22846;42.654;23.314;2023-08-07T10:30:44;94070.03;;;29.39;41.93
31337;BME280;22846;42.654;23.314;2023-08-07T10:33:10;94065.25;;;29.40;41.98
31337;BME280;22846;42.654;23.314;2023-08-07T10:35:37;94064.50;;;29.39;41.99
31337;BME280;22846;42.654;23.314;2023-08-07T10:38:06;94046.75;;;29.40;41.64
31337;BME280;22846;42.654;23.314;2023-08-07T10:40:33;94053.00;;;29.41;41.81
31337;BME280;22846;42.654;23.314;2023-08-07T10:43:13;94058.50;;;29.41;41.77
31337;BME280;22846;42.654;23.314;2023-08-07T10:45:41;94045.03;;;29.43;41.83
31337;BME280;22846;42.654;23.314;2023-08-07T10:48:11;94052.50;;;29.42;41.97
31337;BME280;22846;42.654;23.314;2023-08-07T10:51:03;94049.75;;;29.42;41.92
31337;BME280;22846;42.654;23.314;2023-08-07T10:53:43;94047.00;;;29.42;42.09
31337;BME280;22846;42.654;23.314;2023-08-07T10:58:41;94040.25;;;29.43;41.80
31337;BME280;22846;42.654;23.314;2023-08-07T11:03:45;94034.28;;;29.45;41.81
31337;BME280;22846;42.654;23.314;2023-08-07T11:06:10;94026.78;;;29.45;41.80
31337;BME280;22846;42.654;23.314;2023-08-07T11:08:37;94024.03;;;29.45;42.14
31337;BME280;22846;42.654;23.314;2023-08-07T11:11:06;94018.50;;;29.45;41.93
31337;BME280;22846;42.654;23.314;2023-08-07T11:13:33;94007.50;;;29.45;41.80
31337;BME280;22846;42.654;23.314;2023-08-07T11:15:59;94009.75;;;29.47;41.95
31337;BME280;22846;42.654;23.314;2023-08-07T11:18:25;94001.50;;;29.47;41.89
31337;BME280;22846;42.654;23.314;2023-08-07T11:20:52;94002.28;;;29.47;41.72
31337;BME280;22846;42.654;23.314;2023-08-07T11:23:25;93996.00;;;29.47;42.14
31337;BME280;22846;42.654;23.314;2023-08-07T11:25:54;93995.25;;;29.46;41.83
31337;BME280;22846;42.654;23.314;2023-08-07T11:28:21;93991.53;;;29.49;41.87
31337;BME280;22846;42.654;23.314;2023-08-07T11:30:51;93993.03;;;29.50;41.95
31337;BME280;22846;42.654;23.314;2023-08-07T11:33:18;93987.50;;;29.50;41.93
31337;BME280;22846;42.654;23.314;2023-08-07T11:35:45;93983.53;;;29.51;42.06
31337;BME280;22846;42.654;23.314;2023-08-07T11:38:11;93987.78;;;29.52;41.82
31337;BME280;22846;42.654;23.314;2023-08-07T11:40:37;93990.53;;;29.52;42.12
31337;BME280;22846;42.654;23.314;2023-08-07T11:43:02;93994.81;;;29.53;42.01
31337;BME280;22846;42.654;23.314;2023-08-07T11:45:28;94001.09;;;29.54;41.90
31337;BME280;22846;42.654;23.314;2023-08-07T11:47:55;93993.56;;;29.54;41.99
31337;BME280;22846;42.654;23.314;2023-08-07T11:50:25;94001.84;;;29.54;41.82
31337;BME280;22846;42.654;23.314;2023-08-07T11:52:53;93984.50;;;29.48;42.09
31337;BME280;22846;42.654;23.314;2023-08-07T11:55:18;93991.09;;;29.56;41.73
31337;BME280;22846;42.654;23.314;2023-08-07T11:57:46;93990.34;;;29.56;41.86
31337;BME280;22846;42.654;23.314;2023-08-07T12:00:12;93989.88;;;29.57;42.09
31337;BME280;22846;42.654;23.314;2023-08-07T12:02:43;93990.59;;;29.58;41.90
31337;BME280;22846;42.654;23.314;2023-08-07T12:05:10;93979.31;;;29.56;41.94
31337;BME280;22846;42.654;23.314;2023-08-07T12:07:37;93983.13;;;29.58;41.91
31337;BME280;22846;42.654;23.314;2023-08-07T12:10:07;93987.34;;;29.59;42.05
31337;BME280;22846;42.654;23.314;2023-08-07T12:12:36;93981.84;;;29.59;41.80
31337;BME280;22846;42.654;23.314;2023-08-07T12:15:03;93979.09;;;29.59;41.88
31337;BME280;22846;42.654;23.314;2023-08-07T12:17:31;93975.09;;;29.60;41.84
31337;BME280;22846;42.654;23.314;2023-08-07T12:19:57;93977.84;;;29.60;41.83
31337;BME280;22846;42.654;23.314;2023-08-07T12:22:23;93965.75;;;29.52;41.88
31337;BME280;22846;42.654;23.314;2023-08-07T12:24:48;93981.66;;;29.63;41.85
31337;BME280;22846;42.654;23.314;2023-08-07T12:27:14;93976.91;;;29.63;42.08
31337;BME280;22846;42.654;23.314;2023-08-07T12:29:39;93972.91;;;29.64;42.10
31337;BME280;22846;42.654;23.314;2023-08-07T12:32:05;93972.91;;;29.64;41.99
31337;BME280;22846;42.654;23.314;2023-08-07T12:34:30;93972.41;;;29.66;42.03
31337;BME280;22846;42.654;23.314;2023-08-07T12:36:56;93978.69;;;29.66;41.87
31337;BME280;22846;42.654;23.314;2023-08-07T12:39:21;93978.69;;;29.66;41.96
31337;BME280;22846;42.654;23.314;2023-08-07T12:41:47;93982.19;;;29.67;42.14
31337;BME280;22846;42.654;23.314;2023-08-07T12:44:13;93984.44;;;29.68;41.76
31337;BME280;22846;42.654;23.314;2023-08-07T12:46:39;93995.47;;;29.68;41.99
31337;BME280;22846;42.654;23.314;2023-08-07T12:49:08;93987.97;;;29.69;42.21
31337;BME280;22846;42.654;23.314;2023-08-07T12:51:34;94003.25;;;29.70;41.91
31337;BME280;22846;42.654;23.314;2023-08-07T12:53:59;93995.75;;;29.70;41.88
31337;BME280;22846;42.654;23.314;2023-08-07T12:56:24;93999.25;;;29.71;42.11